메인 페이지
METAR-TAF:

METAR-TAF

공항 :

산토리니 섬, 그리스

위도: 36-24N, 경도: 025-29E, 고도: 38m

현재 날씨관측

예보는 32분 전, 14:50시(UTC)에 발표되었습니다.
11kt
온도 21°C
습도 64%
기압 1019 hPa
시정 10km 이상
고도 2000ft 상공 구름 조금, 타워링 적운.
고도 2500ft 상공 구름 보통

METAR: LGSR 221450Z 36011KT 9999 FEW020TCU SCT025 21/14 Q1019

시각: 18:22 (15:22 UTC)

예보

예보는 4 시간 22분 전, 11:00시(UTC)에 발표되었습니다.
예보 대상 시간: 22일 12시부터 23일 12시까지 (UTC)
북북동14kt
시정 10km 이상
고도 1800ft 상공 구름 조금
고도 2500ft 상공 구름 보통
확률 40% :
일시적
22일 12시부터 23일 00시까지 (UTC)
시정: 5000m
고도 1500ft 상공 구름 조금
고도 1800ft 상공 구름 조금, 타워링 적운.
고도 2000ft 상공 구름 많음
확률 40% :
일시적
22일 12시부터 22일 21시까지 (UTC)
시정: 3000m
고도 1500ft 상공 구름 보통
고도 1800ft 상공 구름 조금, 적란운.
고도 2500ft 상공 구름 많음
뇌우, 비
전환 중
22일 19시부터 22일 21시까지 (UTC)
10kt
전환 중
23일 04시부터 23일 06시까지 (UTC)
북북동10kt

TAF: LGSR 221100Z 2212/2312 02014KT 9999 FEW018 SCT025 PROB40 TEMPO 2212/2300 5000 RA FEW015 FEW018TCU BKN020 PROB40 TEMPO 2212/2221 3000 TSRA SCT015 FEW018CB BKN025 BECMG 2219/2221 08010KT BECMG 2304/2306 02010KT

4,000개 이상의 공항 관측 자료 및 예보 (METAR 및 TAF 보고).

지도상에서 검색 가능한 기상관측소가 노란 점과 빨간 점으로 표시되어 있습니다.

기상관측소 명을 보려면 표시 위로 마우스를 이동하세요.

날씨 관측과 예보를 보려면 클릭하세요.

지도 변경 : 확대하려면 엑스 표시가 있는 녹색 버튼, 축소하려면 빼기 표시가 있는 녹색 버튼, 다음 페이지의 지도를 보려면 녹색 화살표를 클릭하세요.


METAR-TAF: